sensor_id;sensor_type;location;lat;lon;timestamp;temperature;humidity
49861;DHT22;35761;48.826;9.238;2023-05-14T00:02:22;12.90;57.40
49861;DHT22;35761;48.826;9.238;2023-05-14T00:04:52;12.90;57.80
49861;DHT22;35761;48.826;9.238;2023-05-14T00:07:23;12.90;57.70
49861;DHT22;35761;48.826;9.238;2023-05-14T00:09:57;12.90;58.00
49861;DHT22;35761;48.826;9.238;2023-05-14T00:12:30;12.90;58.50
49861;DHT22;35761;48.826;9.238;2023-05-14T00:15:01;12.80;58.70
49861;DHT22;35761;48.826;9.238;2023-05-14T00:17:31;12.80;59.10
49861;DHT22;35761;48.826;9.238;2023-05-14T00:20:02;12.80;59.40
49861;DHT22;35761;48.826;9.238;2023-05-14T00:22:34;12.80;59.40
49861;DHT22;35761;48.826;9.238;2023-05-14T00:25:06;12.80;59.50
49861;DHT22;35761;48.826;9.238;2023-05-14T00:27:40;12.80;59.20
49861;DHT22;35761;48.826;9.238;2023-05-14T00:30:11;12.80;58.90
49861;DHT22;35761;48.826;9.238;2023-05-14T00:32:41;12.70;59.00
49861;DHT22;35761;48.826;9.238;2023-05-14T00:35:12;12.70;59.40
49861;DHT22;35761;48.826;9.238;2023-05-14T00:37:42;12.70;59.90
49861;DHT22;35761;48.826;9.238;2023-05-14T00:40:12;12.70;60.10
49861;DHT22;35761;48.826;9.238;2023-05-14T00:42:46;12.60;59.70
49861;DHT22;35761;48.826;9.238;2023-05-14T00:45:17;12.60;59.40
49861;DHT22;35761;48.826;9.238;2023-05-14T00:47:48;12.60;59.30
49861;DHT22;35761;48.826;9.238;2023-05-14T00:50:19;12.60;59.00
49861;DHT22;35761;48.826;9.238;2023-05-14T00:52:50;12.50;58.80
49861;DHT22;35761;48.826;9.238;2023-05-14T00:55:21;12.50;58.60
49861;DHT22;35761;48.826;9.238;2023-05-14T00:57:57;12.50;58.80
49861;DHT22;35761;48.826;9.238;2023-05-14T01:00:28;12.50;59.10
49861;DHT22;35761;48.826;9.238;2023-05-14T01:02:59;12.50;59.10
49861;DHT22;35761;48.826;9.238;2023-05-14T01:05:50;12.40;58.90
49861;DHT22;35761;48.826;9.238;2023-05-14T01:08:31;12.40;58.90
49861;DHT22;35761;48.826;9.238;2023-05-14T01:11:08;12.40;58.90
49861;DHT22;35761;48.826;9.238;2023-05-14T01:13:50;12.40;58.70
49861;DHT22;35761;48.826;9.238;2023-05-14T01:16:26;12.30;58.70
49861;DHT22;35761;48.826;9.238;2023-05-14T01:18:59;12.30;58.80
49861;DHT22;35761;48.826;9.238;2023-05-14T01:21:39;12.20;59.00
49861;DHT22;35761;48.826;9.238;2023-05-14T01:24:12;12.20;59.00
49861;DHT22;35761;48.826;9.238;2023-05-14T01:26:43;12.20;59.20
49861;DHT22;35761;48.826;9.238;2023-05-14T01:29:20;12.20;59.30
49861;DHT22;35761;48.826;9.238;2023-05-14T01:31:54;12.20;59.40
49861;DHT22;35761;48.826;9.238;2023-05-14T01:34:27;12.10;59.50
49861;DHT22;35761;48.826;9.238;2023-05-14T01:37:03;12.10;59.70
49861;DHT22;35761;48.826;9.238;2023-05-14T01:39:36;12.10;60.30
49861;DHT22;35761;48.826;9.238;2023-05-14T01:42:07;12.10;60.30
49861;DHT22;35761;48.826;9.238;2023-05-14T01:44:38;12.00;60.00
49861;DHT22;35761;48.826;9.238;2023-05-14T01:47:08;12.00;60.00
49861;DHT22;35761;48.826;9.238;2023-05-14T01:49:39;12.00;60.60
49861;DHT22;35761;48.826;9.238;2023-05-14T01:52:12;12.00;60.30
49861;DHT22;35761;48.826;9.238;2023-05-14T01:54:42;12.00;60.90
49861;DHT22;35761;48.826;9.238;2023-05-14T01:57:13;11.90;61.00
49861;DHT22;35761;48.826;9.238;2023-05-14T01:59:43;11.90;61.50
49861;DHT22;35761;48.826;9.238;2023-05-14T02:02:14;11.90;61.70
49861;DHT22;35761;48.826;9.238;2023-05-14T02:04:44;11.90;61.50
49861;DHT22;35761;48.826;9.238;2023-05-14T02:07:17;11.80;61.30
49861;DHT22;35761;48.826;9.238;2023-05-14T02:09:48;11.80;61.50
49861;DHT22;35761;48.826;9.238;2023-05-14T02:12:19;11.80;61.80
49861;DHT22;35761;48.826;9.238;2023-05-14T02:14:49;11.80;61.70
49861;DHT22;35761;48.826;9.238;2023-05-14T02:17:20;11.70;61.90
49861;DHT22;35761;48.826;9.238;2023-05-14T02:19:51;11.70;61.80
49861;DHT22;35761;48.826;9.238;2023-05-14T02:22:24;11.70;62.10
49861;DHT22;35761;48.826;9.238;2023-05-14T02:24:55;11.70;62.10
49861;DHT22;35761;48.826;9.238;2023-05-14T02:27:25;11.70;62.20
49861;DHT22;35761;48.826;9.238;2023-05-14T02:29:56;11.60;62.20
49861;DHT22;35761;48.826;9.238;2023-05-14T02:32:27;11.60;62.40
49861;DHT22;35761;48.826;9.238;2023-05-14T02:34:57;11.60;62.60
49861;DHT22;35761;48.826;9.238;2023-05-14T02:37:31;11.60;62.80
49861;DHT22;35761;48.826;9.238;2023-05-14T02:40:01;11.50;62.90
49861;DHT22;35761;48.826;9.238;2023-05-14T02:42:32;11.50;63.10
49861;DHT22;35761;48.826;9.238;2023-05-14T02:45:04;11.50;63.10
49861;DHT22;35761;48.826;9.238;2023-05-14T02:47:35;11.50;63.40
49861;DHT22;35761;48.826;9.238;2023-05-14T02:50:07;11.50;63.70
49861;DHT22;35761;48.826;9.238;2023-05-14T02:52:40;11.50;63.90
49861;DHT22;35761;48.826;9.238;2023-05-14T02:55:11;11.50;64.10
49861;DHT22;35761;48.826;9.238;2023-05-14T02:57:41;11.40;63.70
49861;DHT22;35761;48.826;9.238;2023-05-14T03:00:13;11.40;63.60
49861;DHT22;35761;48.826;9.238;2023-05-14T03:02:44;11.40;63.00
49861;DHT22;35761;48.826;9.238;2023-05-14T03:05:16;11.40;62.40
49861;DHT22;35761;48.826;9.238;2023-05-14T03:07:49;11.40;62.50
49861;DHT22;35761;48.826;9.238;2023-05-14T03:10:20;11.40;62.70
49861;DHT22;35761;48.826;9.238;2023-05-14T03:12:51;11.40;62.90
49861;DHT22;35761;48.826;9.238;2023-05-14T03:15:21;11.40;63.40
49861;DHT22;35761;48.826;9.238;2023-05-14T03:17:52;11.40;63.70
49861;DHT22;35761;48.826;9.238;2023-05-14T03:20:23;11.30;64.10
49861;DHT22;35761;48.826;9.238;2023-05-14T03:22:56;11.40;64.00
49861;DHT22;35761;48.826;9.238;2023-05-14T03:25:27;11.30;63.50
49861;DHT22;35761;48.826;9.238;2023-05-14T03:27:57;11.30;63.70
49861;DHT22;35761;48.826;9.238;2023-05-14T03:30:28;11.30;63.50
49861;DHT22;35761;48.826;9.238;2023-05-14T03:32:58;11.30;63.60
49861;DHT22;35761;48.826;9.238;2023-05-14T03:35:29;11.20;63.90
49861;DHT22;35761;48.826;9.238;2023-05-14T03:38:02;11.20;64.30
49861;DHT22;35761;48.826;9.238;2023-05-14T03:40:33;11.20;64.40
49861;DHT22;35761;48.826;9.238;2023-05-14T03:43:04;11.20;65.00
49861;DHT22;35761;48.826;9.238;2023-05-14T03:45:35;11.20;66.40
49861;DHT22;35761;48.826;9.238;2023-05-14T03:48:06;11.20;66.00
49861;DHT22;35761;48.826;9.238;2023-05-14T03:50:37;11.20;66.30
49861;DHT22;35761;48.826;9.238;2023-05-14T03:53:10;11.20;66.40
49861;DHT22;35761;48.826;9.238;2023-05-14T03:55:41;11.20;66.60
49861;DHT22;35761;48.826;9.238;2023-05-14T03:58:12;11.20;66.60
49861;DHT22;35761;48.826;9.238;2023-05-14T04:00:43;11.20;66.60
49861;DHT22;35761;48.826;9.238;2023-05-14T04:03:14;11.20;66.60
49861;DHT22;35761;48.826;9.238;2023-05-14T04:05:44;11.20;66.60
49861;DHT22;35761;48.826;9.238;2023-05-14T04:08:17;11.10;66.60
49861;DHT22;35761;48.826;9.238;2023-05-14T04:10:49;11.10;66.60
49861;DHT22;35761;48.826;9.238;2023-05-14T04:13:22;11.10;66.70
49861;DHT22;35761;48.826;9.238;2023-05-14T04:15:53;11.10;67.00
49861;DHT22;35761;48.826;9.238;2023-05-14T04:18:24;11.10;67.40
49861;DHT22;35761;48.826;9.238;2023-05-14T04:20:54;11.10;67.50
49861;DHT22;35761;48.826;9.238;2023-05-14T04:23:28;11.10;67.80
49861;DHT22;35761;48.826;9.238;2023-05-14T04:25:58;11.10;67.70
49861;DHT22;35761;48.826;9.238;2023-05-14T04:28:29;11.10;67.30
49861;DHT22;35761;48.826;9.238;2023-05-14T04:31:00;11.10;67.00
49861;DHT22;35761;48.826;9.238;2023-05-14T04:33:30;11.10;67.20
49861;DHT22;35761;48.826;9.238;2023-05-14T04:36:01;11.10;67.60
49861;DHT22;35761;48.826;9.238;2023-05-14T04:38:34;11.10;68.00
49861;DHT22;35761;48.826;9.238;2023-05-14T04:41:04;11.10;68.00
49861;DHT22;35761;48.826;9.238;2023-05-14T04:43:35;11.10;68.00
49861;DHT22;35761;48.826;9.238;2023-05-14T04:46:05;11.10;67.80
49861;DHT22;35761;48.826;9.238;2023-05-14T04:48:35;11.10;68.00
49861;DHT22;35761;48.826;9.238;2023-05-14T04:51:06;11.10;68.10
49861;DHT22;35761;48.826;9.238;2023-05-14T04:53:39;11.20;68.20
49861;DHT22;35761;48.826;9.238;2023-05-14T04:56:10;11.10;68.00
49861;DHT22;35761;48.826;9.238;2023-05-14T04:58:40;11.10;67.50
49861;DHT22;35761;48.826;9.238;2023-05-14T05:01:11;11.10;67.30
49861;DHT22;35761;48.826;9.238;2023-05-14T05:03:41;11.10;67.10
49861;DHT22;35761;48.826;9.238;2023-05-14T05:06:12;11.10;67.00
49861;DHT22;35761;48.826;9.238;2023-05-14T05:08:45;11.10;67.40
49861;DHT22;35761;48.826;9.238;2023-05-14T05:11:15;11.00;68.20
49861;DHT22;35761;48.826;9.238;2023-05-14T05:13:46;11.10;69.00
49861;DHT22;35761;48.826;9.238;2023-05-14T05:16:16;11.10;68.40
49861;DHT22;35761;48.826;9.238;2023-05-14T05:18:47;11.20;68.20
49861;DHT22;35761;48.826;9.238;2023-05-14T05:21:17;11.20;67.90
49861;DHT22;35761;48.826;9.238;2023-05-14T05:23:50;11.20;68.30
49861;DHT22;35761;48.826;9.238;2023-05-14T05:26:21;11.10;68.30
49861;DHT22;35761;48.826;9.238;2023-05-14T05:28:52;11.10;68.20
49861;DHT22;35761;48.826;9.238;2023-05-14T05:31:23;11.10;68.60
49861;DHT22;35761;48.826;9.238;2023-05-14T05:33:53;11.10;68.70
49861;DHT22;35761;48.826;9.238;2023-05-14T05:36:24;11.20;69.10
49861;DHT22;35761;48.826;9.238;2023-05-14T05:38:57;11.20;69.10
49861;DHT22;35761;48.826;9.238;2023-05-14T05:41:28;11.20;68.20
49861;DHT22;35761;48.826;9.238;2023-05-14T05:43:58;11.20;67.70
49861;DHT22;35761;48.826;9.238;2023-05-14T05:46:29;11.30;68.60
49861;DHT22;35761;48.826;9.238;2023-05-14T05:48:59;11.20;68.40
49861;DHT22;35761;48.826;9.238;2023-05-14T05:51:30;11.20;68.60
49861;DHT22;35761;48.826;9.238;2023-05-14T05:54:03;11.30;69.60
49861;DHT22;35761;48.826;9.238;2023-05-14T05:56:33;11.30;69.90
49861;DHT22;35761;48.826;9.238;2023-05-14T05:59:04;11.30;70.30
49861;DHT22;35761;48.826;9.238;2023-05-14T06:01:34;11.30;70.90
49861;DHT22;35761;48.826;9.238;2023-05-14T06:04:06;11.30;71.10
49861;DHT22;35761;48.826;9.238;2023-05-14T06:06:37;11.30;70.70
49861;DHT22;35761;48.826;9.238;2023-05-14T06:09:10;11.40;70.00
49861;DHT22;35761;48.826;9.238;2023-05-14T06:11:40;11.40;70.40
49861;DHT22;35761;48.826;9.238;2023-05-14T06:14:11;11.40;71.00
49861;DHT22;35761;48.826;9.238;2023-05-14T06:16:41;11.40;70.60
49861;DHT22;35761;48.826;9.238;2023-05-14T06:19:12;11.40;70.30
49861;DHT22;35761;48.826;9.238;2023-05-14T06:21:43;11.40;70.00
49861;DHT22;35761;48.826;9.238;2023-05-14T06:24:16;11.40;69.60
49861;DHT22;35761;48.826;9.238;2023-05-14T06:26:47;11.50;69.70
49861;DHT22;35761;48.826;9.238;2023-05-14T06:29:18;11.50;69.40
49861;DHT22;35761;48.826;9.238;2023-05-14T06:31:48;11.50;69.00
49861;DHT22;35761;48.826;9.238;2023-05-14T06:34:19;11.60;68.40
49861;DHT22;35761;48.826;9.238;2023-05-14T06:36:49;11.60;68.10
49861;DHT22;35761;48.826;9.238;2023-05-14T06:39:22;11.60;68.30
49861;DHT22;35761;48.826;9.238;2023-05-14T06:41:52;11.60;68.70
49861;DHT22;35761;48.826;9.238;2023-05-14T06:44:23;11.30;69.00
49861;DHT22;35761;48.826;9.238;2023-05-14T06:46:53;11.60;68.90
49861;DHT22;35761;48.826;9.238;2023-05-14T06:49:24;11.70;69.10
49861;DHT22;35761;48.826;9.238;2023-05-14T06:51:54;11.70;67.30
49861;DHT22;35761;48.826;9.238;2023-05-14T06:54:27;11.70;66.70
49861;DHT22;35761;48.826;9.238;2023-05-14T06:56:58;11.80;66.20
49861;DHT22;35761;48.826;9.238;2023-05-14T06:59:28;11.80;65.50
49861;DHT22;35761;48.826;9.238;2023-05-14T07:01:59;11.80;65.30
49861;DHT22;35761;48.826;9.238;2023-05-14T07:04:30;11.80;65.20
49861;DHT22;35761;48.826;9.238;2023-05-14T07:07:00;11.80;65.70
49861;DHT22;35761;48.826;9.238;2023-05-14T07:09:34;11.80;66.60
49861;DHT22;35761;48.826;9.238;2023-05-14T07:12:06;11.80;66.90
49861;DHT22;35761;48.826;9.238;2023-05-14T07:14:37;11.90;66.40
49861;DHT22;35761;48.826;9.238;2023-05-14T07:17:07;11.90;65.80
49861;DHT22;35761;48.826;9.238;2023-05-14T07:19:38;11.90;66.70
49861;DHT22;35761;48.826;9.238;2023-05-14T07:22:08;12.00;67.30
49861;DHT22;35761;48.826;9.238;2023-05-14T07:24:41;12.00;67.40
49861;DHT22;35761;48.826;9.238;2023-05-14T07:27:12;12.10;67.20
49861;DHT22;35761;48.826;9.238;2023-05-14T07:29:43;12.10;66.10
49861;DHT22;35761;48.826;9.238;2023-05-14T07:32:13;12.20;64.70
49861;DHT22;35761;48.826;9.238;2023-05-14T07:34:44;12.20;65.30
49861;DHT22;35761;48.826;9.238;2023-05-14T07:37:14;12.30;66.40
49861;DHT22;35761;48.826;9.238;2023-05-14T07:39:48;12.30;65.40
49861;DHT22;35761;48.826;9.238;2023-05-14T07:42:19;12.30;65.60
49861;DHT22;35761;48.826;9.238;2023-05-14T07:45:02;12.30;65.40
49861;DHT22;35761;48.826;9.238;2023-05-14T07:47:33;12.40;66.20
49861;DHT22;35761;48.826;9.238;2023-05-14T07:50:05;12.50;66.60
49861;DHT22;35761;48.826;9.238;2023-05-14T07:52:36;12.50;64.60
49861;DHT22;35761;48.826;9.238;2023-05-14T07:55:10;12.70;62.50
49861;DHT22;35761;48.826;9.238;2023-05-14T07:57:41;12.80;59.20
49861;DHT22;35761;48.826;9.238;2023-05-14T08:00:13;12.90;59.20
49861;DHT22;35761;48.826;9.238;2023-05-14T08:02:44;13.00;60.10
49861;DHT22;35761;48.826;9.238;2023-05-14T08:05:15;13.00;60.70
49861;DHT22;35761;48.826;9.238;2023-05-14T08:07:46;13.00;60.70
49861;DHT22;35761;48.826;9.238;2023-05-14T08:10:19;13.10;57.70
49861;DHT22;35761;48.826;9.238;2023-05-14T08:12:50;13.10;57.50
49861;DHT22;35761;48.826;9.238;2023-05-14T08:15:21;13.20;56.30
49861;DHT22;35761;48.826;9.238;2023-05-14T08:17:54;13.20;58.00
49861;DHT22;35761;48.826;9.238;2023-05-14T08:20:29;13.20;60.00
49861;DHT22;35761;48.826;9.238;2023-05-14T08:23:00;13.30;60.00
49861;DHT22;35761;48.826;9.238;2023-05-14T08:25:33;13.40;57.70
49861;DHT22;35761;48.826;9.238;2023-05-14T08:28:04;13.40;58.10
49861;DHT22;35761;48.826;9.238;2023-05-14T08:30:34;13.40;58.30
49861;DHT22;35761;48.826;9.238;2023-05-14T08:33:05;13.50;58.50
49861;DHT22;35761;48.826;9.238;2023-05-14T08:35:35;13.50;58.90
49861;DHT22;35761;48.826;9.238;2023-05-14T08:38:06;13.50;60.30
49861;DHT22;35761;48.826;9.238;2023-05-14T08:40:39;13.60;58.30
49861;DHT22;35761;48.826;9.238;2023-05-14T08:43:11;13.70;57.90
49861;DHT22;35761;48.826;9.238;2023-05-14T08:45:43;13.80;56.90
49861;DHT22;35761;48.826;9.238;2023-05-14T08:48:15;13.90;56.50
49861;DHT22;35761;48.826;9.238;2023-05-14T08:50:46;14.00;57.80
49861;DHT22;35761;48.826;9.238;2023-05-14T08:53:17;14.10;56.30
49861;DHT22;35761;48.826;9.238;2023-05-14T08:55:50;14.10;56.50
49861;DHT22;35761;48.826;9.238;2023-05-14T08:58:20;14.20;56.30
49861;DHT22;35761;48.826;9.238;2023-05-14T09:00:52;14.20;55.00
49861;DHT22;35761;48.826;9.238;2023-05-14T09:03:23;14.20;55.80
49861;DHT22;35761;48.826;9.238;2023-05-14T09:05:54;14.30;55.80
49861;DHT22;35761;48.826;9.238;2023-05-14T09:08:26;14.30;55.90
49861;DHT22;35761;48.826;9.238;2023-05-14T09:10:59;14.40;55.50
49861;DHT22;35761;48.826;9.238;2023-05-14T09:13:29;14.40;54.10
49861;DHT22;35761;48.826;9.238;2023-05-14T09:16:00;14.50;53.00
49861;DHT22;35761;48.826;9.238;2023-05-14T09:18:31;14.60;51.50
49861;DHT22;35761;48.826;9.238;2023-05-14T09:21:04;14.70;51.90
49861;DHT22;35761;48.826;9.238;2023-05-14T09:23:41;14.70;51.00
49861;DHT22;35761;48.826;9.238;2023-05-14T09:26:15;14.80;50.60
49861;DHT22;35761;48.826;9.238;2023-05-14T09:28:46;14.80;50.40
49861;DHT22;35761;48.826;9.238;2023-05-14T09:31:16;14.90;50.00
49861;DHT22;35761;48.826;9.238;2023-05-14T09:33:49;14.90;50.70
49861;DHT22;35761;48.826;9.238;2023-05-14T09:36:20;14.90;49.80
49861;DHT22;35761;48.826;9.238;2023-05-14T09:38:51;14.90;50.10
49861;DHT22;35761;48.826;9.238;2023-05-14T09:41:24;15.00;50.70
49861;DHT22;35761;48.826;9.238;2023-05-14T09:43:54;15.10;50.00
49861;DHT22;35761;48.826;9.238;2023-05-14T09:46:25;15.10;49.80
49861;DHT22;35761;48.826;9.238;2023-05-14T09:48:57;15.20;47.80
49861;DHT22;35761;48.826;9.238;2023-05-14T09:51:29;15.30;46.70
49861;DHT22;35761;48.826;9.238;2023-05-14T09:54:00;15.30;47.10
49861;DHT22;35761;48.826;9.238;2023-05-14T09:56:36;15.30;48.60
49861;DHT22;35761;48.826;9.238;2023-05-14T09:59:07;15.40;47.30
49861;DHT22;35761;48.826;9.238;2023-05-14T10:01:37;15.50;45.50
49861;DHT22;35761;48.826;9.238;2023-05-14T10:04:09;15.50;45.70
49861;DHT22;35761;48.826;9.238;2023-05-14T10:06:42;15.60;45.20
49861;DHT22;35761;48.826;9.238;2023-05-14T10:09:17;15.60;45.20
49861;DHT22;35761;48.826;9.238;2023-05-14T10:11:53;15.70;43.90
49861;DHT22;35761;48.826;9.238;2023-05-14T10:14:32;15.80;42.10
49861;DHT22;35761;48.826;9.238;2023-05-14T10:17:08;15.80;43.30
49861;DHT22;35761;48.826;9.238;2023-05-14T10:19:49;15.90;40.80
49861;DHT22;35761;48.826;9.238;2023-05-14T10:22:23;15.90;42.00
49861;DHT22;35761;48.826;9.238;2023-05-14T10:24:56;16.10;44.10
49861;DHT22;35761;48.826;9.238;2023-05-14T10:27:29;16.20;44.60
49861;DHT22;35761;48.826;9.238;2023-05-14T10:30:05;16.30;47.10
49861;DHT22;35761;48.826;9.238;2023-05-14T10:32:40;16.40;54.80
49861;DHT22;35761;48.826;9.238;2023-05-14T10:35:18;16.50;70.90
49861;DHT22;35761;48.826;9.238;2023-05-14T10:37:51;16.50;69.20
49861;DHT22;35761;48.826;9.238;2023-05-14T10:40:22;16.60;49.00
49861;DHT22;35761;48.826;9.238;2023-05-14T10:45:29;16.70;62.60
49861;DHT22;35761;48.826;9.238;2023-05-14T10:48:00;16.80;60.60
49861;DHT22;35761;48.826;9.238;2023-05-14T10:50:31;16.80;71.20
49861;DHT22;35761;48.826;9.238;2023-05-14T10:53:01;16.80;79.30
49861;DHT22;35761;48.826;9.238;2023-05-14T10:55:32;16.80;70.10
49861;DHT22;35761;48.826;9.238;2023-05-14T10:58:06;16.70;37.30
49861;DHT22;35761;48.826;9.238;2023-05-14T11:00:37;16.70;38.10
49861;DHT22;35761;48.826;9.238;2023-05-14T11:03:09;16.80;39.70
49861;DHT22;35761;48.826;9.238;2023-05-14T11:05:40;16.90;45.90
49861;DHT22;35761;48.826;9.238;2023-05-14T11:08:11;17.10;38.60
49861;DHT22;35761;48.826;9.238;2023-05-14T11:13:15;17.30;37.60
49861;DHT22;35761;48.826;9.238;2023-05-14T11:15:48;17.40;34.90
49861;DHT22;35761;48.826;9.238;2023-05-14T11:18:26;17.50;54.80
49861;DHT22;35761;48.826;9.238;2023-05-14T11:23:28;17.50;34.40
49861;DHT22;35761;48.826;9.238;2023-05-14T11:25:59;17.50;36.00
49861;DHT22;35761;48.826;9.238;2023-05-14T11:28:32;17.60;33.50
49861;DHT22;35761;48.826;9.238;2023-05-14T11:31:03;17.60;33.50
49861;DHT22;35761;48.826;9.238;2023-05-14T11:33:34;17.50;34.50
49861;DHT22;35761;48.826;9.238;2023-05-14T11:36:05;17.50;33.60
49861;DHT22;35761;48.826;9.238;2023-05-14T11:38:45;17.50;33.30
49861;DHT22;35761;48.826;9.238;2023-05-14T11:41:17;17.50;33.40
49861;DHT22;35761;48.826;9.238;2023-05-14T11:43:52;17.60;33.50
49861;DHT22;35761;48.826;9.238;2023-05-14T11:46:22;17.70;34.00
49861;DHT22;35761;48.826;9.238;2023-05-14T11:48:54;17.80;32.30
49861;DHT22;35761;48.826;9.238;2023-05-14T11:51:25;17.80;32.20
49861;DHT22;35761;48.826;9.238;2023-05-14T11:53:55;17.80;33.60
49861;DHT22;35761;48.826;9.238;2023-05-14T11:56:26;17.80;32.60
49861;DHT22;35761;48.826;9.238;2023-05-14T11:58:58;17.90;39.90
49861;DHT22;35761;48.826;9.238;2023-05-14T12:01:35;18.00;33.70
49861;DHT22;35761;48.826;9.238;2023-05-14T12:04:06;17.90;33.90
49861;DHT22;35761;48.826;9.238;2023-05-14T12:06:38;17.90;34.40
49861;DHT22;35761;48.826;9.238;2023-05-14T12:09:11;18.00;33.70
49861;DHT22;35761;48.826;9.238;2023-05-14T12:11:42;18.00;33.90
49861;DHT22;35761;48.826;9.238;2023-05-14T12:14:18;17.90;33.70
49861;DHT22;35761;48.826;9.238;2023-05-14T12:16:49;18.00;32.30
49861;DHT22;35761;48.826;9.238;2023-05-14T12:19:20;18.00;29.90
49861;DHT22;35761;48.826;9.238;2023-05-14T12:21:52;18.20;30.80
49861;DHT22;35761;48.826;9.238;2023-05-14T12:24:24;18.30;31.00
49861;DHT22;35761;48.826;9.238;2023-05-14T12:26:55;18.60;28.20
49861;DHT22;35761;48.826;9.238;2023-05-14T12:31:59;19.00;26.90
49861;DHT22;35761;48.826;9.238;2023-05-14T12:34:32;19.00;27.50
49861;DHT22;35761;48.826;9.238;2023-05-14T12:39:35;19.60;25.90
49861;DHT22;35761;48.826;9.238;2023-05-14T12:42:06;19.60;26.50
49861;DHT22;35761;48.826;9.238;2023-05-14T12:44:39;19.60;25.30
49861;DHT22;35761;48.826;9.238;2023-05-14T12:47:09;19.70;43.50
49861;DHT22;35761;48.826;9.238;2023-05-14T12:49:40;19.80;28.50
49861;DHT22;35761;48.826;9.238;2023-05-14T12:52:10;19.90;25.80
49861;DHT22;35761;48.826;9.238;2023-05-14T12:54:44;20.10;25.70
49861;DHT22;35761;48.826;9.238;2023-05-14T12:57:14;20.00;24.40
49861;DHT22;35761;48.826;9.238;2023-05-14T12:59:47;19.90;24.50
49861;DHT22;35761;48.826;9.238;2023-05-14T13:02:18;19.90;24.00
49861;DHT22;35761;48.826;9.238;2023-05-14T13:04:48;19.80;24.60
49861;DHT22;35761;48.826;9.238;2023-05-14T13:07:19;19.70;24.80
49861;DHT22;35761;48.826;9.238;2023-05-14T13:09:49;19.90;22.60
49861;DHT22;35761;48.826;9.238;2023-05-14T13:12:19;20.20;24.70
49861;DHT22;35761;48.826;9.238;2023-05-14T13:14:52;20.40;24.20
49861;DHT22;35761;48.826;9.238;2023-05-14T13:17:23;20.50;22.90
49861;DHT22;35761;48.826;9.238;2023-05-14T13:19:53;20.30;23.20
49861;DHT22;35761;48.826;9.238;2023-05-14T13:22:24;20.10;24.60
49861;DHT22;35761;48.826;9.238;2023-05-14T13:24:54;20.00;24.30
49861;DHT22;35761;48.826;9.238;2023-05-14T13:27:25;19.90;24.70
49861;DHT22;35761;48.826;9.238;2023-05-14T13:29:59;19.80;24.20
49861;DHT22;35761;48.826;9.238;2023-05-14T13:32:30;19.70;25.30
49861;DHT22;35761;48.826;9.238;2023-05-14T13:35:00;19.70;26.50
49861;DHT22;35761;48.826;9.238;2023-05-14T13:37:31;19.70;26.80
49861;DHT22;35761;48.826;9.238;2023-05-14T13:40:01;19.60;26.80
49861;DHT22;35761;48.826;9.238;2023-05-14T13:42:33;19.60;27.60
49861;DHT22;35761;48.826;9.238;2023-05-14T13:45:09;19.60;29.80
49861;DHT22;35761;48.826;9.238;2023-05-14T13:47:40;19.60;29.50
49861;DHT22;35761;48.826;9.238;2023-05-14T13:50:11;19.60;28.90
49861;DHT22;35761;48.826;9.238;2023-05-14T13:52:41;19.50;28.80
49861;DHT22;35761;48.826;9.238;2023-05-14T13:55:11;19.60;28.40
49861;DHT22;35761;48.826;9.238;2023-05-14T13:57:49;19.60;29.20
49861;DHT22;35761;48.826;9.238;2023-05-14T14:00:25;19.60;28.90
49861;DHT22;35761;48.826;9.238;2023-05-14T14:02:56;19.50;29.40
49861;DHT22;35761;48.826;9.238;2023-05-14T14:05:27;19.50;30.20
49861;DHT22;35761;48.826;9.238;2023-05-14T14:07:59;19.50;29.90
49861;DHT22;35761;48.826;9.238;2023-05-14T14:10:48;19.50;30.50
49861;DHT22;35761;48.826;9.238;2023-05-14T14:13:20;19.70;29.60
49861;DHT22;35761;48.826;9.238;2023-05-14T14:15:56;19.90;28.90
49861;DHT22;35761;48.826;9.238;2023-05-14T14:18:29;20.10;31.00
49861;DHT22;35761;48.826;9.238;2023-05-14T14:20:59;20.40;22.60
49861;DHT22;35761;48.826;9.238;2023-05-14T14:23:30;21.20;18.70
49861;DHT22;35761;48.826;9.238;2023-05-14T14:26:00;21.50;31.20
49861;DHT22;35761;48.826;9.238;2023-05-14T14:28:31;21.90;18.20
49861;DHT22;35761;48.826;9.238;2023-05-14T14:31:04;21.90;18.50
49861;DHT22;35761;48.826;9.238;2023-05-14T14:33:35;22.30;17.90
49861;DHT22;35761;48.826;9.238;2023-05-14T14:36:06;22.40;17.30
49861;DHT22;35761;48.826;9.238;2023-05-14T14:38:37;23.00;16.30
49861;DHT22;35761;48.826;9.238;2023-05-14T14:41:08;23.30;30.50
49861;DHT22;35761;48.826;9.238;2023-05-14T14:43:39;23.20;43.00
49861;DHT22;35761;48.826;9.238;2023-05-14T14:46:12;23.40;19.70
49861;DHT22;35761;48.826;9.238;2023-05-14T14:48:43;23.70;26.40
49861;DHT22;35761;48.826;9.238;2023-05-14T14:51:13;24.00;32.40
49861;DHT22;35761;48.826;9.238;2023-05-14T14:53:44;24.10;16.30
49861;DHT22;35761;48.826;9.238;2023-05-14T14:56:14;24.20;14.90
49861;DHT22;35761;48.826;9.238;2023-05-14T14:58:45;24.40;15.00
49861;DHT22;35761;48.826;9.238;2023-05-14T15:01:18;24.50;14.20
49861;DHT22;35761;48.826;9.238;2023-05-14T15:03:49;24.50;18.30
49861;DHT22;35761;48.826;9.238;2023-05-14T15:06:19;24.40;17.90
49861;DHT22;35761;48.826;9.238;2023-05-14T15:08:50;24.00;17.30
49861;DHT22;35761;48.826;9.238;2023-05-14T15:11:20;23.50;18.20
49861;DHT22;35761;48.826;9.238;2023-05-14T15:13:50;23.10;17.80
49861;DHT22;35761;48.826;9.238;2023-05-14T15:16:23;22.80;18.00
49861;DHT22;35761;48.826;9.238;2023-05-14T15:18:54;22.50;17.30
49861;DHT22;35761;48.826;9.238;2023-05-14T15:21:25;22.20;17.30
49861;DHT22;35761;48.826;9.238;2023-05-14T15:23:55;22.00;17.60
49861;DHT22;35761;48.826;9.238;2023-05-14T15:26:25;21.90;18.20
49861;DHT22;35761;48.826;9.238;2023-05-14T15:28:56;21.70;17.90
49861;DHT22;35761;48.826;9.238;2023-05-14T15:31:29;21.50;18.30
49861;DHT22;35761;48.826;9.238;2023-05-14T15:34:00;21.30;18.60
49861;DHT22;35761;48.826;9.238;2023-05-14T15:36:30;21.30;18.90
49861;DHT22;35761;48.826;9.238;2023-05-14T15:39:01;21.20;19.10
49861;DHT22;35761;48.826;9.238;2023-05-14T15:41:31;21.20;19.00
49861;DHT22;35761;48.826;9.238;2023-05-14T15:44:02;21.10;19.00
49861;DHT22;35761;48.826;9.238;2023-05-14T15:46:35;21.10;18.60
49861;DHT22;35761;48.826;9.238;2023-05-14T15:49:06;21.00;18.80
49861;DHT22;35761;48.826;9.238;2023-05-14T15:51:37;20.90;18.60
49861;DHT22;35761;48.826;9.238;2023-05-14T15:54:07;20.90;18.20
49861;DHT22;35761;48.826;9.238;2023-05-14T15:56:38;20.80;18.20
49861;DHT22;35761;48.826;9.238;2023-05-14T15:59:08;20.90;18.40
49861;DHT22;35761;48.826;9.238;2023-05-14T16:01:42;21.00;18.30
49861;DHT22;35761;48.826;9.238;2023-05-14T16:04:13;21.30;18.60
49861;DHT22;35761;48.826;9.238;2023-05-14T16:06:44;21.60;18.80
49861;DHT22;35761;48.826;9.238;2023-05-14T16:09:15;21.90;18.40
49861;DHT22;35761;48.826;9.238;2023-05-14T16:11:45;22.30;17.70